Terminal Aerodrome Forecast
Issued by NWS

Current Version | Previous Version | Graphics & Text | Print | Product List | Glossary On
Versions: 1 2 3 4 5 6 7 8 9 10 11 12 13 14 15 16 17 18 19 20 21
000
FTUS41 KILN 310543
TAFLCK
TAF
KLCK 310543Z 3106/0106 VRB03KT P6SM BKN120
     FM311400 29006KT P6SM VCSH BKN050
     FM311600 30008KT P6SM VCTS BKN050CB
      TEMPO 3118/3122 5SM -TSRA BR OVC040CB
     FM312200 36008KT P6SM BKN100
     FM010400 01006KT P6SM SKC=

USA.gov is the U.S. government's official web portal to all federal, state and local government web resources and services.